createdAt,value
2018-05-14T00:00:15.929Z,11.90
2018-05-14T00:02:42.959Z,12.57
2018-05-14T00:05:09.206Z,14.27
2018-05-14T00:07:36.356Z,14.00
2018-05-14T00:10:02.587Z,13.13
2018-05-14T00:12:28.786Z,10.40
2018-05-14T00:14:56.738Z,14.87
2018-05-14T00:17:22.975Z,12.73
2018-05-14T00:19:49.231Z,12.40
2018-05-14T00:22:15.494Z,12.83
2018-05-14T00:24:41.760Z,13.87
2018-05-14T00:27:08.704Z,15.70
2018-05-14T00:29:35.689Z,15.93
2018-05-14T00:32:03.060Z,13.30
2018-05-14T00:34:30.458Z,12.67
2018-05-14T00:36:56.721Z,11.57
2018-05-14T00:39:23.693Z,13.53
2018-05-14T00:41:49.944Z,12.03
2018-05-14T00:44:16.188Z,10.53
2018-05-14T00:46:43.560Z,12.43
2018-05-14T00:49:10.581Z,9.87
2018-05-14T00:51:36.816Z,9.10
2018-05-14T00:54:03.473Z,8.13
2018-05-14T00:56:30.097Z,10.13
2018-05-14T00:58:56.730Z,9.63
2018-05-14T01:01:23.702Z,10.00
2018-05-14T01:03:49.965Z,9.07
2018-05-14T01:06:16.949Z,8.10
2018-05-14T01:08:43.629Z,11.73
2018-05-14T01:11:09.888Z,12.93
2018-05-14T01:13:36.133Z,12.63
2018-05-14T01:16:02.439Z,11.40
2018-05-14T01:18:28.699Z,8.33
2018-05-14T01:20:54.934Z,8.67
2018-05-14T01:23:21.173Z,7.73
2018-05-14T01:25:47.434Z,7.10
2018-05-14T01:28:13.748Z,6.57
2018-05-14T01:30:40.671Z,7.60
2018-05-14T01:33:07.306Z,6.77
2018-05-14T01:35:34.321Z,4.97
2018-05-14T01:38:00.554Z,6.17
2018-05-14T01:40:26.809Z,6.00
2018-05-14T01:42:53.549Z,6.00
2018-05-14T01:45:19.804Z,4.70
2018-05-14T01:47:46.765Z,5.30
2018-05-14T01:50:13.794Z,4.93
2018-05-14T01:52:40.046Z,7.57
2018-05-14T01:55:07.021Z,6.67
2018-05-14T01:57:34.006Z,7.73
2018-05-14T02:00:00.219Z,5.73
2018-05-14T02:02:27.194Z,7.30
2018-05-14T02:04:53.475Z,8.43
2018-05-14T02:07:19.764Z,5.60
2018-05-14T02:09:46.034Z,8.73
2018-05-14T02:12:12.300Z,8.70
2018-05-14T02:14:38.520Z,5.83
2018-05-14T02:17:05.496Z,7.60
2018-05-14T02:19:31.724Z,8.50
2018-05-14T02:21:58.714Z,7.37
2018-05-14T02:24:25.320Z,6.00
2018-05-14T02:26:51.559Z,5.10
2018-05-14T02:29:18.224Z,6.77
2018-05-14T02:31:44.805Z,5.47
2018-05-14T02:34:11.300Z,5.70
2018-05-14T02:36:37.539Z,6.60
2018-05-14T02:39:04.670Z,6.47
2018-05-14T02:41:30.861Z,5.80
2018-05-14T02:43:57.177Z,5.63
2018-05-14T02:46:23.419Z,5.30
2018-05-14T02:48:49.723Z,6.03
2018-05-14T02:51:15.961Z,6.20
2018-05-14T02:53:42.185Z,5.40
2018-05-14T02:56:08.390Z,5.50
2018-05-14T02:58:34.627Z,6.27
2018-05-14T03:01:00.935Z,7.13
2018-05-14T03:03:27.211Z,7.20
2018-05-14T03:05:54.220Z,6.03
2018-05-14T03:08:20.445Z,6.63
2018-05-14T03:10:47.821Z,6.27
2018-05-14T03:13:14.056Z,5.97
2018-05-14T03:15:40.322Z,7.20
2018-05-14T03:18:07.249Z,7.27
2018-05-14T03:20:34.260Z,5.70
2018-05-14T03:23:00.520Z,5.73
2018-05-14T03:25:26.802Z,6.07
2018-05-14T03:27:53.177Z,7.33
2018-05-14T03:30:19.490Z,5.60
2018-05-14T03:32:46.492Z,7.27
2018-05-14T03:35:12.746Z,8.07
2018-05-14T03:37:39.017Z,7.30
2018-05-14T03:40:05.967Z,7.70
2018-05-14T03:42:32.939Z,8.40
2018-05-14T03:44:59.189Z,7.53
2018-05-14T03:47:25.816Z,5.13
2018-05-14T03:49:51.996Z,6.93
2018-05-14T03:52:18.303Z,6.10
2018-05-14T03:54:44.554Z,7.07
2018-05-14T03:57:10.781Z,6.63
2018-05-14T03:59:49.556Z,6.80
2018-05-14T04:02:28.839Z,9.83
2018-05-14T04:05:07.185Z,8.33
2018-05-14T04:07:33.505Z,12.80
2018-05-14T04:09:59.731Z,10.47
2018-05-14T04:12:25.978Z,8.70
2018-05-14T04:14:52.267Z,9.23
2018-05-14T04:17:18.498Z,7.73
2018-05-14T04:19:44.755Z,8.53
2018-05-14T04:22:10.985Z,8.53
2018-05-14T04:24:37.248Z,4.63
2018-05-14T04:27:03.531Z,4.50
2018-05-14T04:29:30.530Z,4.37
2018-05-14T04:31:56.790Z,6.10
2018-05-14T04:34:23.090Z,5.00
2018-05-14T04:36:50.042Z,6.07
2018-05-14T04:39:16.290Z,5.80
2018-05-14T04:41:42.536Z,5.17
2018-05-14T04:44:08.875Z,5.97
2018-05-14T04:46:35.133Z,5.23
2018-05-14T04:49:02.134Z,6.80
2018-05-14T04:51:28.782Z,5.20
2018-05-14T04:53:55.001Z,4.97
2018-05-14T04:56:22.038Z,4.87
2018-05-14T04:58:49.016Z,5.60
2018-05-14T05:01:15.662Z,5.93
2018-05-14T05:03:41.905Z,6.47
2018-05-14T05:06:08.927Z,6.77
2018-05-14T05:08:35.899Z,7.20
2018-05-14T05:11:02.477Z,9.17
2018-05-14T05:13:29.482Z,7.63
2018-05-14T05:15:55.801Z,5.40
2018-05-14T05:18:22.771Z,9.40
2018-05-14T05:20:49.752Z,7.80
2018-05-14T05:23:15.988Z,6.43
2018-05-14T05:25:42.256Z,5.87
2018-05-14T05:28:08.965Z,6.07
2018-05-14T05:30:36.352Z,5.50
2018-05-14T05:33:02.602Z,6.30
2018-05-14T05:35:28.808Z,7.37
2018-05-14T05:37:55.075Z,6.80
2018-05-14T05:40:21.264Z,6.83
2018-05-14T05:42:47.512Z,7.43
2018-05-14T05:45:14.189Z,5.80
2018-05-14T05:47:40.408Z,5.50
2018-05-14T05:50:06.617Z,5.83
2018-05-14T05:52:32.936Z,5.57
2018-05-14T05:54:59.875Z,4.93
2018-05-14T05:57:26.857Z,7.60
2018-05-14T05:59:53.247Z,6.50
2018-05-14T06:02:19.476Z,5.80
2018-05-14T06:04:45.791Z,7.17
2018-05-14T06:07:12.411Z,7.23
2018-05-14T06:09:39.059Z,7.30
2018-05-14T06:12:05.661Z,4.77
2018-05-14T06:14:32.707Z,5.67
2018-05-14T06:16:59.246Z,5.80
2018-05-14T06:19:25.504Z,5.57
2018-05-14T06:21:52.501Z,10.50
2018-05-14T06:24:19.153Z,9.17
2018-05-14T06:26:45.342Z,9.27
2018-05-14T06:29:11.606Z,10.53
2018-05-14T06:31:37.813Z,9.53
2018-05-14T06:34:03.992Z,10.67
2018-05-14T06:36:30.300Z,12.10
2018-05-14T06:38:56.848Z,11.67
2018-05-14T06:41:23.092Z,9.87
2018-05-14T06:43:49.313Z,9.40
2018-05-14T06:46:15.587Z,9.17
2018-05-14T06:48:41.777Z,8.83
2018-05-14T06:51:08.030Z,9.43
2018-05-14T06:53:34.619Z,8.90
2018-05-14T06:56:00.894Z,11.40
2018-05-14T06:58:27.204Z,8.60
2018-05-14T07:00:53.737Z,7.83
2018-05-14T07:03:19.987Z,8.63
2018-05-14T07:05:46.967Z,10.43
2018-05-14T07:08:13.214Z,11.10
2018-05-14T07:10:39.433Z,10.90
2018-05-14T07:13:05.689Z,9.23
2018-05-14T07:15:32.699Z,8.53
2018-05-14T07:17:59.353Z,11.70
2018-05-14T07:20:25.588Z,9.90
2018-05-14T07:22:52.596Z,8.80
2018-05-14T07:25:18.816Z,10.73
2018-05-14T07:27:45.072Z,11.53
2018-05-14T07:30:11.747Z,11.30
2018-05-14T07:32:37.944Z,13.23
2018-05-14T07:35:04.292Z,10.37
2018-05-14T07:37:30.538Z,6.43
2018-05-14T07:39:58.303Z,10.23
2018-05-14T07:42:24.572Z,6.77
2018-05-14T07:44:50.828Z,7.50
2018-05-14T07:47:17.066Z,8.93
2018-05-14T07:49:43.328Z,15.77
2018-05-14T07:52:09.540Z,11.43
2018-05-14T07:54:36.909Z,10.23
2018-05-14T07:57:03.144Z,9.70
2018-05-14T07:59:30.147Z,9.63
2018-05-14T08:01:57.123Z,12.27
2018-05-14T08:04:23.344Z,10.90
2018-05-14T08:06:50.327Z,14.13
2018-05-14T08:09:16.617Z,13.50
2018-05-14T08:11:43.624Z,8.73
2018-05-14T08:14:10.589Z,11.27
2018-05-14T08:16:36.839Z,8.20
2018-05-14T08:19:03.880Z,11.90
2018-05-14T08:21:30.553Z,14.10
2018-05-14T08:23:56.831Z,14.47
2018-05-14T08:26:23.104Z,13.27
2018-05-14T08:28:50.809Z,11.63
2018-05-14T08:31:17.409Z,12.87
2018-05-14T08:33:44.408Z,14.27
2018-05-14T08:36:11.377Z,14.10
2018-05-14T08:38:37.607Z,9.50
2018-05-14T08:41:04.213Z,12.40
2018-05-14T08:43:31.007Z,10.33
2018-05-14T08:45:57.212Z,12.70
2018-05-14T08:48:24.190Z,11.13
2018-05-14T08:50:50.456Z,12.70
2018-05-14T08:53:16.705Z,11.23
2018-05-14T08:55:42.945Z,13.70
2018-05-14T08:58:09.160Z,13.80
2018-05-14T09:00:35.398Z,16.30
2018-05-14T09:03:01.660Z,10.30
2018-05-14T09:05:27.878Z,13.47
2018-05-14T09:07:54.198Z,10.83
2018-05-14T09:10:20.444Z,14.03
2018-05-14T09:12:47.399Z,11.93
2018-05-14T09:15:13.698Z,7.77
2018-05-14T09:17:40.328Z,8.50
2018-05-14T09:20:07.319Z,12.73
2018-05-14T09:22:33.957Z,11.53
2018-05-14T09:25:00.955Z,11.57
2018-05-14T09:27:27.181Z,8.73
2018-05-14T09:29:53.426Z,10.27
2018-05-14T09:32:19.726Z,10.33
2018-05-14T09:34:45.942Z,14.00
2018-05-14T09:37:12.258Z,15.87
2018-05-14T09:39:38.444Z,9.97
2018-05-14T09:42:05.424Z,11.60
2018-05-14T09:44:32.399Z,13.93
2018-05-14T09:46:59.688Z,13.67
2018-05-14T09:49:25.736Z,11.37
2018-05-14T09:51:51.959Z,11.10
2018-05-14T09:54:18.612Z,10.60
2018-05-14T09:56:44.834Z,22.23
2018-05-14T09:59:11.088Z,20.33
2018-05-14T10:01:37.280Z,17.20
2018-05-14T10:04:03.573Z,21.90
2018-05-14T10:06:29.811Z,19.33
2018-05-14T10:08:56.052Z,16.40
2018-05-14T10:11:22.699Z,20.00
2018-05-14T10:13:48.985Z,19.17
2018-05-14T10:16:15.567Z,17.13
2018-05-14T10:18:42.290Z,18.60
2018-05-14T10:21:08.439Z,10.03
2018-05-14T10:23:34.809Z,20.50
2018-05-14T10:26:01.454Z,19.43
2018-05-14T10:28:28.443Z,12.63
2018-05-14T10:30:55.094Z,18.97
2018-05-14T10:33:21.343Z,18.83
2018-05-14T10:35:47.575Z,16.33
2018-05-14T10:38:13.875Z,20.67
2018-05-14T10:40:40.950Z,18.33
2018-05-14T10:43:07.924Z,18.77
2018-05-14T10:45:34.923Z,19.37
2018-05-14T10:48:01.887Z,16.60
2018-05-14T10:50:28.124Z,13.70
2018-05-14T10:52:54.402Z,25.10
2018-05-14T10:55:20.679Z,22.07
2018-05-14T10:57:47.619Z,11.90
2018-05-14T11:00:13.923Z,12.50
2018-05-14T11:02:40.169Z,17.70
2018-05-14T11:05:06.423Z,13.23
2018-05-14T11:07:32.701Z,15.97
2018-05-14T11:09:58.948Z,16.23
2018-05-14T11:12:25.215Z,16.07
2018-05-14T11:14:51.463Z,18.40
2018-05-14T11:17:17.756Z,18.67
2018-05-14T11:19:43.984Z,18.33
2018-05-14T11:22:10.623Z,12.33
2018-05-14T11:24:37.246Z,15.97
2018-05-14T11:27:04.235Z,21.03
2018-05-14T11:29:30.463Z,13.10
2018-05-14T11:31:56.768Z,16.53
2018-05-14T11:34:23.773Z,13.90
2018-05-14T11:36:50.059Z,17.57
2018-05-14T11:39:17.035Z,17.37
2018-05-14T11:41:43.299Z,14.50
2018-05-14T11:44:09.585Z,14.93
2018-05-14T11:46:36.262Z,12.97
2018-05-14T11:49:02.543Z,16.80
2018-05-14T11:51:28.790Z,15.00
2018-05-14T11:53:55.093Z,17.23
2018-05-14T11:56:21.699Z,18.37
2018-05-14T11:58:47.955Z,16.43
2018-05-14T12:01:14.939Z,13.13
2018-05-14T12:03:41.199Z,14.43
2018-05-14T12:06:08.188Z,18.00
2018-05-14T12:08:35.330Z,11.17
2018-05-14T12:11:01.634Z,18.27
2018-05-14T12:13:27.903Z,15.43
2018-05-14T12:15:54.211Z,15.37
2018-05-14T12:18:20.819Z,14.37
2018-05-14T12:20:47.478Z,17.63
2018-05-14T12:23:14.093Z,10.57
2018-05-14T12:25:40.743Z,19.07
2018-05-14T12:28:06.989Z,19.23
2018-05-14T12:30:33.274Z,15.63
2018-05-14T12:33:00.258Z,17.63
2018-05-14T12:35:26.545Z,20.63
2018-05-14T12:37:53.189Z,22.33
2018-05-14T12:40:19.435Z,20.63
2018-05-14T12:42:46.065Z,21.57
2018-05-14T12:45:12.697Z,18.43
2018-05-14T12:47:38.975Z,19.10
2018-05-14T12:50:06.018Z,20.00
2018-05-14T12:52:33.003Z,20.23
2018-05-14T12:54:59.278Z,22.83
2018-05-14T12:57:25.589Z,20.70
2018-05-14T12:59:51.830Z,19.50
2018-05-14T13:02:18.180Z,21.70
2018-05-14T13:04:45.179Z,21.20
2018-05-14T13:07:11.865Z,17.90
2018-05-14T13:09:38.866Z,13.50
2018-05-14T13:12:05.864Z,21.87
2018-05-14T13:14:32.090Z,23.63
2018-05-14T13:16:58.427Z,17.13
2018-05-14T13:19:24.693Z,20.53
2018-05-14T13:21:50.971Z,21.33
2018-05-14T13:24:17.969Z,19.63
2018-05-14T13:26:45.026Z,25.77
2018-05-14T13:29:11.265Z,26.07
2018-05-14T13:31:37.515Z,26.17
2018-05-14T13:34:03.774Z,31.37
2018-05-14T13:36:30.804Z,29.73
2018-05-14T13:38:57.028Z,29.83
2018-05-14T13:41:23.355Z,23.47
2018-05-14T13:43:49.604Z,26.60
2018-05-14T13:46:15.901Z,28.67
2018-05-14T13:48:42.160Z,21.17
2018-05-14T13:51:08.445Z,20.53
2018-05-14T13:53:35.444Z,24.80
2018-05-14T13:56:02.237Z,27.00
2018-05-14T13:58:28.896Z,29.00
2018-05-14T14:00:55.869Z,30.27
2018-05-14T14:03:22.084Z,30.30
2018-05-14T14:05:50.051Z,23.10
2018-05-14T14:08:16.295Z,23.00
2018-05-14T14:10:43.284Z,26.40
2018-05-14T14:13:10.279Z,26.43
2018-05-14T14:15:36.602Z,32.53
2018-05-14T14:18:02.852Z,29.13
2018-05-14T14:20:29.142Z,28.87
2018-05-14T14:22:55.431Z,31.97
2018-05-14T14:25:21.694Z,33.13
2018-05-14T14:27:48.781Z,21.00
2018-05-14T14:30:15.573Z,34.00
2018-05-14T14:32:41.802Z,27.87
2018-05-14T14:35:09.035Z,27.27
2018-05-14T14:37:36.683Z,40.50
2018-05-14T14:40:03.015Z,36.87
2018-05-14T14:42:29.297Z,22.77
2018-05-14T14:44:55.625Z,36.33
2018-05-14T14:47:21.956Z,38.67
2018-05-14T14:49:48.199Z,38.37
2018-05-14T14:52:14.532Z,48.97
2018-05-14T14:54:40.765Z,29.10
2018-05-14T14:57:07.004Z,34.83
2018-05-14T14:59:33.300Z,47.60
2018-05-14T15:02:00.476Z,42.07
2018-05-14T15:04:27.875Z,41.90
2018-05-14T15:06:55.151Z,36.93
2018-05-14T15:09:21.396Z,48.60
2018-05-14T15:11:47.657Z,51.63
2018-05-14T15:14:13.954Z,47.57
2018-05-14T15:16:40.931Z,50.87
2018-05-14T15:19:07.221Z,53.70
2018-05-14T15:21:33.500Z,49.40
2018-05-14T15:23:59.906Z,36.17
2018-05-14T15:26:28.071Z,49.63
2018-05-14T15:28:54.354Z,48.00
2018-05-14T15:31:20.637Z,39.70
2018-05-14T15:33:47.329Z,48.27
2018-05-14T15:36:13.660Z,53.03
2018-05-14T15:38:40.332Z,49.63
2018-05-14T15:41:07.056Z,45.87
2018-05-14T15:43:34.088Z,59.83
2018-05-14T15:46:00.764Z,27.83
2018-05-14T15:48:27.060Z,52.37
2018-05-14T15:50:53.346Z,43.50
2018-05-14T15:53:19.621Z,41.87
2018-05-14T15:55:46.262Z,32.67
2018-05-14T15:58:12.540Z,40.60
2018-05-14T16:00:39.582Z,35.27
2018-05-14T16:03:05.922Z,34.57
2018-05-14T16:05:32.940Z,37.33
2018-05-14T16:07:59.242Z,26.40
2018-05-14T16:10:25.570Z,22.93
2018-05-14T16:12:51.864Z,8.60
2018-05-14T16:15:18.542Z,12.57
2018-05-14T16:17:45.527Z,19.90
2018-05-14T16:20:11.780Z,23.50
2018-05-14T16:22:38.054Z,16.93
2018-05-14T16:25:05.056Z,19.73
2018-05-14T16:27:31.340Z,18.00
2018-05-14T16:29:57.651Z,23.97
2018-05-14T16:32:23.919Z,24.93
2018-05-14T16:34:50.187Z,35.07
2018-05-14T16:37:16.456Z,38.73
2018-05-14T16:39:44.263Z,33.67
2018-05-14T16:42:10.902Z,41.30
2018-05-14T16:44:37.161Z,36.67
2018-05-14T16:47:03.405Z,34.77
2018-05-14T16:49:29.700Z,30.53
2018-05-14T16:51:56.376Z,41.73
2018-05-14T16:54:23.342Z,25.47
2018-05-14T16:56:49.778Z,35.90
2018-05-14T16:59:16.032Z,32.33
2018-05-14T17:01:42.260Z,35.77
2018-05-14T17:04:08.924Z,35.90
2018-05-14T17:06:35.056Z,37.27
2018-05-14T17:09:01.366Z,29.10
2018-05-14T17:11:28.662Z,37.50
2018-05-14T17:13:55.656Z,33.07
2018-05-14T17:16:22.727Z,27.50
2018-05-14T17:18:49.022Z,21.70
2018-05-14T17:21:15.267Z,26.50
2018-05-14T17:23:42.514Z,29.87
2018-05-14T17:26:08.800Z,26.30
2018-05-14T17:28:35.053Z,34.07
2018-05-14T17:31:01.390Z,29.67
2018-05-14T17:33:27.672Z,35.83
2018-05-14T17:35:53.914Z,33.20
2018-05-14T17:38:20.232Z,37.33
2018-05-14T17:40:46.516Z,31.73
2018-05-14T17:43:13.708Z,38.23
2018-05-14T17:45:40.007Z,42.70
2018-05-14T17:48:06.261Z,46.67
2018-05-14T17:50:32.577Z,43.57
2018-05-14T17:53:00.153Z,46.87
2018-05-14T17:55:26.791Z,40.60
2018-05-14T17:57:53.144Z,34.03
2018-05-14T18:00:20.155Z,45.13
2018-05-14T18:02:46.432Z,37.17
2018-05-14T18:05:13.116Z,41.43
2018-05-14T18:07:39.375Z,37.87
2018-05-14T18:10:06.065Z,41.57
2018-05-14T18:12:32.332Z,53.93
2018-05-14T18:14:58.602Z,45.63
2018-05-14T18:17:25.306Z,51.33
2018-05-14T18:19:58.404Z,49.77
2018-05-14T18:22:25.627Z,53.23
2018-05-14T18:27:58.262Z,40.37
2018-05-14T18:30:27.844Z,53.57
2018-05-14T18:33:00.850Z,28.33
2018-05-14T18:35:27.158Z,33.07
2018-05-14T18:37:53.447Z,56.50
2018-05-14T18:40:19.716Z,37.60
2018-05-14T18:42:45.959Z,47.33
2018-05-14T18:45:12.228Z,61.17
2018-05-14T18:47:38.473Z,67.57
2018-05-14T18:50:05.339Z,70.97
2018-05-14T18:52:31.586Z,62.33
2018-05-14T18:54:58.603Z,42.90
2018-05-14T18:57:24.872Z,63.13
2018-05-14T18:59:51.527Z,51.37
2018-05-14T19:02:18.166Z,56.47
2018-05-14T19:04:45.196Z,62.33
2018-05-14T19:07:12.976Z,62.93
2018-05-14T19:09:39.261Z,56.73
2018-05-14T19:12:05.551Z,65.73
2018-05-14T19:17:04.628Z,55.20
2018-05-14T19:19:30.823Z,47.97
2018-05-14T19:21:57.831Z,57.57
2018-05-14T19:24:24.092Z,63.97
2018-05-14T19:26:50.373Z,55.30
2018-05-14T19:29:22.900Z,46.70
2018-05-14T19:31:49.213Z,52.10
2018-05-14T19:34:21.492Z,44.27
2018-05-14T19:36:47.784Z,49.70
2018-05-14T19:39:20.072Z,38.17
2018-05-14T19:41:46.372Z,47.20
2018-05-14T19:44:13.029Z,53.00
2018-05-14T19:46:40.013Z,52.57
2018-05-14T19:49:06.308Z,56.60
2018-05-14T19:51:33.331Z,53.67
2018-05-14T19:53:59.597Z,55.60
2018-05-14T19:56:25.811Z,50.87
2018-05-14T19:58:52.141Z,41.20
2018-05-14T20:01:18.397Z,51.03
2018-05-14T20:03:46.113Z,60.53
2018-05-14T20:06:12.338Z,55.50
2018-05-14T20:08:42.021Z,59.43
2018-05-14T20:11:08.991Z,53.83
2018-05-14T20:13:36.912Z,48.70
2018-05-14T20:16:03.148Z,61.03
2018-05-14T20:18:29.389Z,46.77
2018-05-14T20:20:56.024Z,56.00
2018-05-14T20:23:22.317Z,60.87
2018-05-14T20:25:50.198Z,47.57
2018-05-14T20:28:17.682Z,55.70
2018-05-14T20:30:43.938Z,47.53
2018-05-14T20:33:10.653Z,61.13
2018-05-14T20:35:36.921Z,63.17
2018-05-14T20:38:03.167Z,59.67
2018-05-14T20:40:30.192Z,67.13
2018-05-14T20:42:57.092Z,61.83
2018-05-14T20:45:25.392Z,51.40
2018-05-14T20:47:52.738Z,52.83
2018-05-14T20:50:20.391Z,64.10
2018-05-14T20:52:46.927Z,58.53
2018-05-14T20:55:13.173Z,66.57
2018-05-14T20:57:39.802Z,74.73
2018-05-14T21:00:07.241Z,39.67
2018-05-14T21:02:34.888Z,64.37
2018-05-14T21:05:02.819Z,68.13
2018-05-14T21:07:29.902Z,45.83
2018-05-14T21:09:56.889Z,66.50
2018-05-14T21:12:23.703Z,67.83
2018-05-14T21:14:51.398Z,63.93
2018-05-14T21:17:19.151Z,67.57
2018-05-14T21:19:46.482Z,55.80
2018-05-14T21:22:13.274Z,62.77
2018-05-14T21:24:40.218Z,55.17
2018-05-14T21:27:09.216Z,57.07
2018-05-14T21:29:35.742Z,53.17
2018-05-14T21:32:02.573Z,60.23
2018-05-14T21:34:31.257Z,61.23
2018-05-14T21:36:57.561Z,62.67
2018-05-14T21:39:23.812Z,57.27
2018-05-14T21:41:50.001Z,54.33
2018-05-14T21:44:16.305Z,35.07
2018-05-14T21:46:44.156Z,53.57
2018-05-14T21:49:10.536Z,51.17
2018-05-14T21:51:37.251Z,43.47
2018-05-14T21:54:05.456Z,43.53
2018-05-14T21:56:33.176Z,29.03
2018-05-14T21:58:59.921Z,35.40
2018-05-14T22:01:26.152Z,34.97
2018-05-14T22:03:53.828Z,24.27
2018-05-14T22:06:20.052Z,23.43
2018-05-14T22:08:47.793Z,19.87
2018-05-14T22:11:14.096Z,18.20
2018-05-14T22:13:41.146Z,23.17
2018-05-14T22:16:08.352Z,25.17
2018-05-14T22:18:35.347Z,23.07
2018-05-14T22:21:01.591Z,21.30
2018-05-14T22:23:28.273Z,25.27
2018-05-14T22:25:55.531Z,20.00
2018-05-14T22:28:21.791Z,25.97
2018-05-14T22:30:48.044Z,24.23
2018-05-14T22:33:14.253Z,21.23
2018-05-14T22:35:42.309Z,27.47
2018-05-14T22:38:10.054Z,27.43
2018-05-14T22:40:36.658Z,26.87
2018-05-14T22:43:03.944Z,24.43
2018-05-14T22:45:30.232Z,21.60
2018-05-14T22:47:57.479Z,25.83
2018-05-14T22:50:23.792Z,23.93
2018-05-14T22:52:51.658Z,26.77
2018-05-14T22:55:17.931Z,24.37
2018-05-14T22:57:44.166Z,25.87
2018-05-14T23:00:11.051Z,25.47
2018-05-14T23:02:38.067Z,27.07
2018-05-14T23:05:04.672Z,27.80
2018-05-14T23:07:30.903Z,28.37
2018-05-14T23:09:57.164Z,29.93
2018-05-14T23:12:24.218Z,28.30
2018-05-14T23:14:51.248Z,27.20
2018-05-14T23:17:17.498Z,28.53
2018-05-14T23:19:43.759Z,28.93
2018-05-14T23:22:15.403Z,30.00
2018-05-14T23:24:42.388Z,29.37
2018-05-14T23:27:08.672Z,27.20
2018-05-14T23:29:34.903Z,27.30
2018-05-14T23:32:01.152Z,31.73
2018-05-14T23:34:27.407Z,26.87
2018-05-14T23:36:54.403Z,28.53
2018-05-14T23:39:20.694Z,29.80
2018-05-14T23:41:47.701Z,28.43
2018-05-14T23:44:13.987Z,27.50
2018-05-14T23:46:40.677Z,30.03
2018-05-14T23:49:06.940Z,28.63
2018-05-14T23:51:33.217Z,28.90
2018-05-14T23:53:59.483Z,27.53
2018-05-14T23:56:25.684Z,30.63
2018-05-14T23:58:52.312Z,31.77
